Time;durP1;ratioP1;P1;durP2;ratioP2;P2;SDS_P1;SDS_P2;PMS_P1;PMS_P2;Temp;Humidity;BMP_temperature;BMP_pressure;BME280_temperature;BME280_humidity;BME280_pressure;Samples;Min_cycle;Max_cycle;Signal;HPM_P1;HPM_P2
2023/08/16 00:00:56;;;;;;;;;;;;;;;20.42;100.00;96707.28;5047631;28;19958;-77
2023/08/16 00:03:22;;;;;;;;;;;;;;;20.44;100.00;96699.03;5029556;28;19983;-77
2023/08/16 00:05:48;;;;;;;;;;;;;;;20.46;100.00;96700.34;5047090;28;20133;-76
2023/08/16 00:08:14;;;;;;;;;;;;;;;20.48;100.00;96700.88;5047676;28;19969;-71
2023/08/16 00:10:40;;;;;;;;;;;;;;;20.51;100.00;96688.06;5046897;28;20316;-71
2023/08/16 00:13:06;;;;;;;;;;;;;;;20.52;100.00;96698.47;5047611;28;20023;-71
2023/08/16 00:15:32;;;;;;;;;;;;;;;20.55;100.00;96705.09;5047061;28;19960;-71
2023/08/16 00:17:58;;;;;;;;;;;;;;;20.55;100.00;96707.75;5047446;28;20006;-71
2023/08/16 00:20:27;;;;;;;;;;;;;;;20.53;100.00;96715.25;5047292;28;19958;-71
2023/08/16 00:22:53;;;;;;;;;;;;;;;20.46;100.00;96721.66;5029317;28;19961;-71
2023/08/16 00:25:19;;;;;;;;;;;;;;;20.42;100.00;96720.63;5046607;28;19954;-70
2023/08/16 00:27:45;;;;;;;;;;;;;;;20.42;100.00;96728.59;5047119;28;19963;-71
2023/08/16 00:30:11;;;;;;;;;;;;;;;20.39;100.00;96718.50;5047120;28;20112;-71
2023/08/16 00:32:37;;;;;;;;;;;;;;;20.34;100.00;96707.88;5029086;28;19961;-72
2023/08/16 00:35:04;;;;;;;;;;;;;;;20.29;100.00;96705.25;5047209;28;19943;-72
2023/08/16 00:37:30;;;;;;;;;;;;;;;20.24;100.00;96689.28;5046690;28;19963;-71
2023/08/16 00:39:56;;;;;;;;;;;;;;;20.24;100.00;96687.41;5046460;28;19960;-71
2023/08/16 00:42:22;;;;;;;;;;;;;;;20.24;100.00;96687.41;5046949;28;19956;-71
2023/08/16 00:44:48;;;;;;;;;;;;;;;20.26;100.00;96689.78;5046149;28;20186;-70
2023/08/16 00:47:14;;;;;;;;;;;;;;;20.26;100.00;96689.78;5046462;28;19997;-70
2023/08/16 00:49:41;;;;;;;;;;;;;;;20.27;100.00;96678.09;5046404;28;20243;-70
2023/08/16 00:52:07;;;;;;;;;;;;;;;20.24;100.00;96673.28;5046335;28;20147;-70
2023/08/16 00:54:33;;;;;;;;;;;;;;;20.21;100.00;96673.84;5045975;28;20284;-70
2023/08/16 00:57:00;;;;;;;;;;;;;;;20.17;100.00;96662.94;5046497;28;20025;-70
2023/08/16 00:59:26;;;;;;;;;;;;;;;20.17;100.00;96659.50;5046528;28;19958;-69
2023/08/16 01:01:52;;;;;;;;;;;;;;;20.13;100.00;96664.56;5046421;28;19959;-73
2023/08/16 01:04:19;;;;;;;;;;;;;;;20.14;100.00;96658.19;5046482;28;19949;-74
2023/08/16 01:06:45;;;;;;;;;;;;;;;20.11;100.00;96664.03;5045936;28;19956;-73
2023/08/16 01:09:11;;;;;;;;;;;;;;;20.08;100.00;96660.06;5046326;28;19955;-73
2023/08/16 01:11:45;;;;;;;;;;;;;;;20.06;100.00;96666.72;5045864;28;19991;-73
2023/08/16 01:14:14;;;;;;;;;;;;;;;20.04;100.00;96663.53;5045872;28;19967;-75
2023/08/16 01:16:42;;;;;;;;;;;;;;;20.01;100.00;96667.56;5045965;28;19959;-75
2023/08/16 01:19:10;;;;;;;;;;;;;;;20.00;100.00;96665.94;5046235;28;19967;-73
2023/08/16 01:21:41;;;;;;;;;;;;;;;19.99;100.00;96659.03;5045883;28;19971;-70
2023/08/16 01:24:16;;;;;;;;;;;;;;;20.01;100.00;96662.22;5046062;28;19966;-69
2023/08/16 01:26:42;;;;;;;;;;;;;;;20.01;100.00;96667.56;5046225;28;19952;-69
2023/08/16 01:29:09;;;;;;;;;;;;;;;19.97;100.00;96671.84;5045552;28;20257;-69
2023/08/16 01:31:35;;;;;;;;;;;;;;;19.96;100.00;96672.09;5028199;28;19969;-70
2023/08/16 01:34:01;;;;;;;;;;;;;;;19.96;100.00;96674.75;5045478;28;19963;-69
2023/08/16 01:36:27;;;;;;;;;;;;;;;19.96;100.00;96672.88;5045806;28;19954;-74
2023/08/16 01:38:56;;;;;;;;;;;;;;;19.97;100.00;96679.00;5045348;28;19959;-74
2023/08/16 01:41:22;;;;;;;;;;;;;;;19.97;100.00;96686.97;5045775;28;20137;-75
2023/08/16 01:43:48;;;;;;;;;;;;;;;19.95;100.00;96670.50;5045309;28;19963;-73
2023/08/16 01:46:15;;;;;;;;;;;;;;;19.93;100.00;96681.44;5045623;28;20263;-73
2023/08/16 01:48:42;;;;;;;;;;;;;;;19.93;100.00;96678.78;5044622;28;19968;-73
2023/08/16 01:51:08;;;;;;;;;;;;;;;19.92;100.00;96676.38;5045413;28;19964;-73
2023/08/16 01:53:36;;;;;;;;;;;;;;;19.92;100.00;96679.81;5045356;28;19967;-74
2023/08/16 01:56:02;;;;;;;;;;;;;;;19.92;100.00;96677.16;5045630;28;19936;-73
2023/08/16 01:58:28;;;;;;;;;;;;;;;19.93;100.00;96677.94;5045305;28;20191;-74
2023/08/16 02:00:54;;;;;;;;;;;;;;;19.92;100.00;96671.84;5044819;28;19957;-74
2023/08/16 02:03:20;;;;;;;;;;;;;;;19.92;100.00;96669.16;5044692;28;20302;-74
2023/08/16 02:05:46;;;;;;;;;;;;;;;19.90;100.00;96671.31;5044886;28;20227;-74
2023/08/16 02:08:12;;;;;;;;;;;;;;;19.88;100.00;96652.16;5045232;28;19969;-74
2023/08/16 02:10:38;;;;;;;;;;;;;;;19.87;100.00;96656.69;5044913;28;20153;-74
2023/08/16 02:13:04;;;;;;;;;;;;;;;19.85;100.00;96652.72;5045027;28;19954;-73
2023/08/16 02:15:30;;;;;;;;;;;;;;;19.85;100.00;96644.72;5044945;28;19952;-71
2023/08/16 02:17:55;;;;;;;;;;;;;;;19.82;100.00;96643.41;5044956;28;20010;-73
2023/08/16 02:20:21;;;;;;;;;;;;;;;19.80;100.00;96652.72;5045512;28;19963;-74
2023/08/16 02:22:47;;;;;;;;;;;;;;;19.76;100.00;96647.16;5044935;28;19992;-73
2023/08/16 02:25:13;;;;;;;;;;;;;;;19.74;100.00;96651.94;5044470;28;19997;-73
2023/08/16 02:27:40;;;;;;;;;;;;;;;19.72;100.00;96651.44;5044426;28;19999;-73
2023/08/16 02:30:06;;;;;;;;;;;;;;;19.71;100.00;96655.13;5044651;28;19957;-73
2023/08/16 02:32:33;;;;;;;;;;;;;;;19.70;100.00;96653.56;5044273;28;19966;-70
2023/08/16 02:34:59;;;;;;;;;;;;;;;19.69;100.00;96651.91;5044391;28;19949;-75
2023/08/16 02:37:25;;;;;;;;;;;;;;;19.65;100.00;96657.00;5026901;28;19980;-76
2023/08/16 02:39:51;;;;;;;;;;;;;;;19.59;100.00;96657.28;5044383;28;20049;-75
2023/08/16 02:42:17;;;;;;;;;;;;;;;19.55;100.00;96656.22;5044375;28;19953;-75
2023/08/16 02:44:43;;;;;;;;;;;;;;;19.50;100.00;96649.06;5044382;28;20246;-75
2023/08/16 02:47:09;;;;;;;;;;;;;;;19.47;100.00;96642.41;5044594;28;19966;-75
2023/08/16 02:49:35;;;;;;;;;;;;;;;19.46;100.00;96640.84;5044474;28;19955;-74
2023/08/16 02:52:01;;;;;;;;;;;;;;;19.44;100.00;96648.28;5044389;28;20296;-74
2023/08/16 02:54:26;;;;;;;;;;;;;;;19.42;100.00;96639.78;5043778;28;19962;-73
2023/08/16 02:56:52;;;;;;;;;;;;;;;19.40;100.00;96643.75;5043871;28;20156;-73
2023/08/16 02:59:18;;;;;;;;;;;;;;;19.38;100.00;96635.25;5043948;28;20021;-73
2023/08/16 03:01:44;;;;;;;;;;;;;;;19.36;100.00;96642.69;5044178;28;19956;-73
2023/08/16 03:04:10;;;;;;;;;;;;;;;19.33;100.00;96643.25;5043981;28;20246;-73
2023/08/16 03:06:36;;;;;;;;;;;;;;;19.31;100.00;96643.50;5026259;28;19964;-73
2023/08/16 03:09:01;;;;;;;;;;;;;;;19.29;100.00;96642.19;5044425;28;19955;-75
2023/08/16 03:11:27;;;;;;;;;;;;;;;19.27;100.00;96655.75;5044372;28;19969;-71
2023/08/16 03:13:53;;;;;;;;;;;;;;;19.26;100.00;96659.47;5044081;28;19954;-71
2023/08/16 03:16:19;;;;;;;;;;;;;;;19.23;100.00;96658.16;5044172;28;19951;-71
2023/08/16 03:18:45;;;;;;;;;;;;;;;19.21;100.00;96662.94;5044157;28;19980;-71
2023/08/16 03:21:10;;;;;;;;;;;;;;;19.14;100.00;96667.72;5044192;28;20123;-71
2023/08/16 03:23:36;;;;;;;;;;;;;;;19.10;100.00;96674.63;5043557;28;19969;-71
2023/08/16 03:26:02;;;;;;;;;;;;;;;19.06;100.00;96686.88;5044400;28;19952;-73
2023/08/16 03:28:28;;;;;;;;;;;;;;;19.00;100.00;96691.41;5044408;28;19962;-72
2023/08/16 03:30:54;;;;;;;;;;;;;;;18.98;100.00;96692.72;5043699;28;19967;-74
2023/08/16 03:33:20;;;;;;;;;;;;;;;18.95;100.00;96693.25;5043695;28;19961;-74
2023/08/16 03:35:46;;;;;;;;;;;;;;;18.91;100.00;96702.81;5043858;28;19952;-74
2023/08/16 03:38:11;;;;;;;;;;;;;;;18.91;100.00;96706.25;5044377;28;20165;-75
2023/08/16 03:40:37;;;;;;;;;;;;;;;18.93;100.00;96713.97;5044233;28;20255;-73
2023/08/16 03:43:03;;;;;;;;;;;;;;;18.92;100.00;96739.75;5043656;28;20035;-73
2023/08/16 03:45:29;;;;;;;;;;;;;;;18.89;100.00;96742.13;5044087;28;19978;-75
2023/08/16 03:47:56;;;;;;;;;;;;;;;18.85;100.00;96753.28;5026325;28;20032;-75
2023/08/16 03:50:22;;;;;;;;;;;;;;;18.86;100.00;96744.25;5043918;28;19957;-75
2023/08/16 03:52:50;;;;;;;;;;;;;;;18.83;100.00;96749.28;5043850;28;20227;-75
2023/08/16 03:55:16;;;;;;;;;;;;;;;18.81;100.00;96746.09;5043447;28;19941;-75
2023/08/16 03:57:42;;;;;;;;;;;;;;;18.74;100.00;96756.16;5043807;28;20140;-75
2023/08/16 04:00:11;;;;;;;;;;;;;;;18.72;100.00;96761.75;5043831;28;19959;-75
2023/08/16 04:02:37;;;;;;;;;;;;;;;18.76;100.00;96748.72;5043422;28;19968;-75
2023/08/16 04:05:07;;;;;;;;;;;;;;;18.79;100.00;96751.69;5043464;28;19957;-75
2023/08/16 04:07:33;;;;;;;;;;;;;;;18.81;100.00;96746.91;5043748;28;20155;-72
2023/08/16 04:09:59;;;;;;;;;;;;;;;18.86;100.00;96736.28;5043821;28;19956;-73
2023/08/16 04:12:25;;;;;;;;;;;;;;;18.90;100.00;96730.44;5044646;28;20037;-73
2023/08/16 04:14:51;;;;;;;;;;;;;;;18.93;100.00;96720.09;5047231;28;20052;-72
2023/08/16 04:17:17;;;;;;;;;;;;;;;18.99;100.00;96720.91;5047312;28;19978;-73
2023/08/16 04:19:43;;;;;;;;;;;;;;;19.00;100.00;96715.31;5047375;28;19959;-73
2023/08/16 04:22:09;;;;;;;;;;;;;;;19.05;100.00;96717.19;5047310;28;20019;-73
2023/08/16 04:24:35;;;;;;;;;;;;;;;19.08;100.00;96724.59;5047430;28;19951;-71
2023/08/16 04:27:00;;;;;;;;;;;;;;;19.11;100.00;96721.44;5046968;28;19958;-70
2023/08/16 04:29:26;;;;;;;;;;;;;;;19.13;100.00;96721.97;5046947;28;19960;-71
2023/08/16 04:31:52;;;;;;;;;;;;;;;19.19;100.00;96718.25;5046424;28;19982;-69
2023/08/16 04:34:18;;;;;;;;;;;;;;;19.34;100.00;96712.13;5047199;28;20031;-71
2023/08/16 04:36:44;;;;;;;;;;;;;;;19.42;100.00;96705.44;5046828;28;20173;-71
2023/08/16 04:39:10;;;;;;;;;;;;;;;19.47;100.00;96705.47;5046944;28;19972;-73
2023/08/16 04:41:36;;;;;;;;;;;;;;;19.60;100.00;96702.22;5046903;28;20150;-73
2023/08/16 04:44:02;;;;;;;;;;;;;;;19.68;100.00;96688.38;5046933;28;20028;-75
2023/08/16 04:46:28;;;;;;;;;;;;;;;19.73;100.00;96692.91;5046904;28;19962;-73
2023/08/16 04:48:54;;;;;;;;;;;;;;;19.79;100.00;96694.50;5029184;28;20084;-73
2023/08/16 04:51:20;;;;;;;;;;;;;;;19.83;100.00;96690.22;5047086;28;20017;-73
2023/08/16 04:53:46;;;;;;;;;;;;;;;19.87;100.00;96685.97;5047067;28;19943;-74
2023/08/16 04:56:12;;;;;;;;;;;;;;;19.88;100.00;96694.75;5046283;28;19956;-73
2023/08/16 04:58:38;;;;;;;;;;;;;;;19.85;100.00;96695.28;5046374;28;19954;-72
2023/08/16 05:01:04;;;;;;;;;;;;;;;19.82;100.00;96695.81;5046330;28;19967;-68
2023/08/16 05:03:30;;;;;;;;;;;;;;;19.83;100.00;96687.56;5028768;28;19962;-69
2023/08/16 05:05:59;;;;;;;;;;;;;;;19.90;100.00;96684.63;5046454;28;19963;-69
2023/08/16 05:08:25;;;;;;;;;;;;;;;19.98;100.00;96685.94;5046319;28;19956;-70
2023/08/16 05:10:51;;;;;;;;;;;;;;;20.02;100.00;96673.66;5046286;28;19970;-70
2023/08/16 05:13:17;;;;;;;;;;;;;;;20.01;100.00;96678.22;5046423;28;20007;-69
2023/08/16 05:15:44;;;;;;;;;;;;;;;20.01;100.00;96680.06;5028687;28;19950;-70
2023/08/16 05:18:11;;;;;;;;;;;;;;;20.02;100.00;96685.09;5046429;28;19960;-75
2023/08/16 05:20:38;;;;;;;;;;;;;;;20.03;100.00;96701.88;5028525;28;19956;-70
2023/08/16 05:23:03;;;;;;;;;;;;;;;20.04;100.00;96712.25;5027666;28;19953;-70
2023/08/16 05:25:29;;;;;;;;;;;;;;;20.02;100.00;96727.69;5045215;28;19967;-70
2023/08/16 05:27:58;;;;;;;;;;;;;;;20.04;100.00;96733.56;5045867;28;19990;-69
2023/08/16 05:30:25;;;;;;;;;;;;;;;20.12;100.00;96739.41;5045891;28;20131;-69
2023/08/16 05:32:54;;;;;;;;;;;;;;;20.17;100.00;96737.50;5045884;28;19959;-69
2023/08/16 05:35:20;;;;;;;;;;;;;;;20.27;100.00;96750.78;5045902;28;19963;-75
2023/08/16 05:37:46;;;;;;;;;;;;;;;20.39;100.00;96739.00;5045704;28;19961;-69
2023/08/16 05:40:12;;;;;;;;;;;;;;;20.59;100.00;96741.59;5046114;28;19961;-74
2023/08/16 05:42:38;;;;;;;;;;;;;;;20.81;100.00;96745.75;5045797;28;19967;-75
2023/08/16 05:45:04;;;;;;;;;;;;;;;21.08;100.00;96738.13;5045876;28;19966;-75
2023/08/16 05:47:30;;;;;;;;;;;;;;;21.26;100.00;96736.63;5028805;28;19961;-75
2023/08/16 05:49:57;;;;;;;;;;;;;;;21.50;100.00;96730.56;5045784;28;19958;-75
2023/08/16 05:52:22;;;;;;;;;;;;;;;21.78;100.00;96722.84;5028182;28;19967;-75
2023/08/16 05:54:48;;;;;;;;;;;;;;;22.02;100.00;96730.88;5045326;28;20141;-74
2023/08/16 05:57:14;;;;;;;;;;;;;;;22.18;100.00;96726.16;5045867;28;19958;-74
2023/08/16 05:59:40;;;;;;;;;;;;;;;22.34;100.00;96735.59;5045571;28;20070;-75
2023/08/16 06:02:09;;;;;;;;;;;;;;;22.47;100.00;96731.44;5028070;28;19966;-75
2023/08/16 06:04:35;;;;;;;;;;;;;;;22.64;100.00;96725.59;5027393;28;19973;-75
2023/08/16 06:07:01;;;;;;;;;;;;;;;22.67;100.00;96733.03;5045138;28;20292;-75
2023/08/16 06:09:27;;;;;;;;;;;;;;;22.65;100.00;96724.50;5028051;28;20234;-75
2023/08/16 06:11:52;;;;;;;;;;;;;;;22.49;100.00;96735.41;5044949;28;19967;-70
2023/08/16 06:14:18;;;;;;;;;;;;;;;22.38;100.00;96738.47;5045373;28;20179;-73
2023/08/16 06:16:45;;;;;;;;;;;;;;;22.28;100.00;96734.09;5045297;28;20172;-72
2023/08/16 06:19:13;;;;;;;;;;;;;;;22.15;100.00;96735.50;5045290;28;19968;-73
2023/08/16 06:21:39;;;;;;;;;;;;;;;22.06;100.00;96743.38;5045150;28;19952;-72
2023/08/16 06:24:05;;;;;;;;;;;;;;;22.22;100.00;96743.19;5044949;28;19966;-72
2023/08/16 06:26:31;;;;;;;;;;;;;;;22.41;100.00;96732.59;5044750;28;19956;-72
2023/08/16 06:28:57;;;;;;;;;;;;;;;22.45;100.00;96733.59;5044630;28;20019;-73
2023/08/16 06:31:23;;;;;;;;;;;;;;;22.52;100.00;96730.56;5044455;28;19968;-69
2023/08/16 06:33:49;;;;;;;;;;;;;;;22.64;100.00;96726.38;5044656;28;20227;-74
2023/08/16 06:36:15;;;;;;;;;;;;;;;22.81;100.00;96723.19;5044396;28;19955;-74
2023/08/16 06:38:41;;;;;;;;;;;;;;;23.01;100.00;96718.66;5044578;28;19965;-75
2023/08/16 06:41:07;;;;;;;;;;;;;;;23.14;100.00;96711.75;5044301;28;19960;-75
2023/08/16 06:43:32;;;;;;;;;;;;;;;23.19;100.00;96720.50;5044866;28;20003;-75
2023/08/16 06:45:58;;;;;;;;;;;;;;;23.15;100.00;96716.84;5044868;28;19981;-75
2023/08/16 06:48:24;;;;;;;;;;;;;;;23.25;100.00;96715.88;5044758;28;19982;-72
2023/08/16 06:50:50;;;;;;;;;;;;;;;23.46;100.00;96716.34;5044231;28;20175;-71
2023/08/16 06:53:16;;;;;;;;;;;;;;;23.66;100.00;96717.84;5044658;28;20271;-75
2023/08/16 06:55:41;;;;;;;;;;;;;;;23.77;100.00;96705.91;5044728;28;19963;-73
2023/08/16 06:58:07;;;;;;;;;;;;;;;23.92;100.00;96707.50;5026709;28;19980;-73
2023/08/16 07:00:34;;;;;;;;;;;;;;;23.95;99.67;96711.47;5043993;28;20205;-73
2023/08/16 07:03:03;;;;;;;;;;;;;;;24.00;99.89;96695.28;5044298;28;19965;-74
2023/08/16 07:05:29;;;;;;;;;;;;;;;23.97;99.97;96702.03;5044574;28;19956;-75
2023/08/16 07:07:55;;;;;;;;;;;;;;;24.09;98.83;96688.94;5044314;28;20267;-68
2023/08/16 07:10:21;;;;;;;;;;;;;;;24.27;98.24;96689.91;5044396;28;19963;-75
2023/08/16 07:12:48;;;;;;;;;;;;;;;24.43;98.75;96690.38;5026205;28;19969;-74
2023/08/16 07:15:14;;;;;;;;;;;;;;;24.53;95.19;96678.66;5044210;28;20144;-74
2023/08/16 07:17:40;;;;;;;;;;;;;;;24.59;97.41;96690.06;5044393;28;19955;-74
2023/08/16 07:20:10;;;;;;;;;;;;;;;24.71;98.55;96699.19;5043802;28;20238;-74
2023/08/16 07:22:38;;;;;;;;;;;;;;;24.87;97.75;96696.91;5044173;28;19964;-75
2023/08/16 07:25:05;;;;;;;;;;;;;;;24.95;98.83;96695.41;5044235;28;19986;-71
2023/08/16 07:27:31;;;;;;;;;;;;;;;25.04;93.58;96676.69;5044195;28;19971;-71
2023/08/16 07:29:56;;;;;;;;;;;;;;;25.10;94.14;96680.84;5043723;28;19953;-72
2023/08/16 07:32:23;;;;;;;;;;;;;;;25.14;94.54;96681.81;5043532;28;19966;-72
2023/08/16 07:34:49;;;;;;;;;;;;;;;25.19;93.59;96672.84;5044042;28;20237;-72
2023/08/16 07:37:15;;;;;;;;;;;;;;;25.21;92.65;96674.13;5043496;28;19970;-71
2023/08/16 07:39:41;;;;;;;;;;;;;;;25.25;92.53;96680.47;5043932;28;19978;-72
2023/08/16 07:42:07;;;;;;;;;;;;;;;25.21;93.24;96679.50;5044332;28;20255;-72
2023/08/16 07:44:34;;;;;;;;;;;;;;;25.19;93.60;96681.66;5043865;28;19959;-74
2023/08/16 07:47:00;;;;;;;;;;;;;;;25.22;93.99;96691.03;5044435;28;20053;-73
2023/08/16 07:49:26;;;;;;;;;;;;;;;25.30;93.16;96682.22;5048045;28;19956;-74
2023/08/16 07:51:54;;;;;;;;;;;;;;;25.33;93.37;96683.53;5047473;28;20041;-74
2023/08/16 07:54:19;;;;;;;;;;;;;;;25.40;93.61;96681.97;5047975;28;19956;-74
2023/08/16 07:56:45;;;;;;;;;;;;;;;25.49;92.41;96687.38;5047556;28;19958;-73
2023/08/16 07:59:11;;;;;;;;;;;;;;;25.57;91.27;96680.47;5047597;28;20000;-72
2023/08/16 08:01:37;;;;;;;;;;;;;;;25.57;92.46;96696.59;5029728;28;19990;-75
2023/08/16 08:04:03;;;;;;;;;;;;;;;25.57;91.58;96685.84;5047936;28;19959;-74
2023/08/16 08:06:29;;;;;;;;;;;;;;;25.54;93.93;96700.69;5047513;28;19953;-74
2023/08/16 08:08:55;;;;;;;;;;;;;;;25.58;93.80;96701.66;5046265;28;19983;-73
2023/08/16 08:11:20;;;;;;;;;;;;;;;25.66;90.79;96689.38;5047008;28;19950;-74
2023/08/16 08:13:46;;;;;;;;;;;;;;;25.67;91.57;96691.75;5047337;28;19964;-73
2023/08/16 08:16:12;;;;;;;;;;;;;;;25.71;89.55;96681.19;5029573;28;20133;-73
2023/08/16 08:18:38;;;;;;;;;;;;;;;25.63;91.28;96690.78;5046999;28;19935;-73
2023/08/16 08:21:04;;;;;;;;;;;;;;;25.58;91.54;96690.13;5047629;28;19954;-72
2023/08/16 08:23:30;;;;;;;;;;;;;;;25.67;91.84;96694.44;5047572;28;19960;-76
2023/08/16 08:25:56;;;;;;;;;;;;;;;25.73;89.42;96668.25;5046962;28;19961;-72
2023/08/16 08:28:22;;;;;;;;;;;;;;;25.82;90.03;96677.09;5046677;28;19972;-71
2023/08/16 08:30:48;;;;;;;;;;;;;;;26.03;92.69;96693.50;5046945;28;19982;-71
2023/08/16 08:33:14;;;;;;;;;;;;;;;26.17;88.94;96676.47;5045228;28;20256;-71
2023/08/16 08:35:40;;;;;;;;;;;;;;;26.18;88.16;96678.03;5045728;28;20000;-71
2023/08/16 08:38:05;;;;;;;;;;;;;;;26.11;87.37;96670.44;5045784;28;20011;-70
2023/08/16 08:40:32;;;;;;;;;;;;;;;26.14;88.15;96683.22;5046211;28;20000;-72
2023/08/16 08:42:58;;;;;;;;;;;;;;;26.19;86.22;96663.50;5046825;28;20013;-72
2023/08/16 08:45:25;;;;;;;;;;;;;;;26.26;85.02;96653.84;5047013;28;19967;-71
2023/08/16 08:47:50;;;;;;;;;;;;;;;26.35;89.32;96685.34;5046460;28;19941;-71
2023/08/16 08:50:16;;;;;;;;;;;;;;;26.46;86.24;96657.84;5047189;28;20009;-70
2023/08/16 08:52:42;;;;;;;;;;;;;;;26.53;84.96;96646.59;5047041;28;19964;-71
2023/08/16 08:55:08;;;;;;;;;;;;;;;26.69;85.47;96652.31;5046885;28;19961;-71
2023/08/16 08:57:35;;;;;;;;;;;;;;;26.76;83.46;96636.50;5028557;28;19965;-73
2023/08/16 09:00:01;;;;;;;;;;;;;;;26.79;84.93;96656.59;5046952;28;20276;-73
2023/08/16 09:02:29;;;;;;;;;;;;;;;26.79;83.44;96646.63;5028612;28;19967;-74
2023/08/16 09:04:57;;;;;;;;;;;;;;;26.87;84.72;96648.50;5046450;28;19966;-74
2023/08/16 09:07:22;;;;;;;;;;;;;;;26.94;85.10;96650.72;5046662;28;19953;-74
2023/08/16 09:09:49;;;;;;;;;;;;;;;27.11;85.66;96655.31;5046534;28;19975;-74
2023/08/16 09:12:15;;;;;;;;;;;;;;;27.25;83.42;96639.75;5046593;28;20143;-74
2023/08/16 09:14:41;;;;;;;;;;;;;;;27.27;81.68;96625.97;5046478;28;19958;-73
2023/08/16 09:17:07;;;;;;;;;;;;;;;27.28;83.66;96639.13;5045908;28;19948;-72
2023/08/16 09:19:32;;;;;;;;;;;;;;;27.35;85.08;96646.72;5046602;28;19958;-73
2023/08/16 09:21:58;;;;;;;;;;;;;;;27.42;80.69;96617.38;5045815;28;19978;-74
2023/08/16 09:24:24;;;;;;;;;;;;;;;27.44;80.10;96617.84;5045857;28;19969;-73
2023/08/16 09:26:51;;;;;;;;;;;;;;;27.50;78.95;96613.06;5045813;28;19967;-73
2023/08/16 09:29:18;;;;;;;;;;;;;;;27.60;82.00;96628.09;5046144;28;20137;-73
2023/08/16 09:31:45;;;;;;;;;;;;;;;27.70;80.42;96600.78;5045267;28;19959;-73
2023/08/16 09:34:13;;;;;;;;;;;;;;;27.73;79.74;96605.50;5027375;28;20139;-73
2023/08/16 09:36:45;;;;;;;;;;;;;;;27.70;76.01;96584.63;5045517;28;20268;-76
2023/08/16 09:39:11;;;;;;;;;;;;;;;27.61;78.45;96603.50;5027821;28;19956;-75
2023/08/16 09:41:52;;;;;;;;;;;;;;;27.62;79.44;96609.69;5028190;28;20179;-74
2023/08/16 09:44:18;;;;;;;;;;;;;;;27.62;78.53;96601.63;5045427;28;19962;-76
2023/08/16 09:46:44;;;;;;;;;;;;;;;27.63;77.98;96592.41;5045629;28;19956;-76
2023/08/16 09:49:10;;;;;;;;;;;;;;;27.68;79.41;96613.78;5045757;28;19981;-76
2023/08/16 09:51:37;;;;;;;;;;;;;;;27.72;78.69;96606.63;5045357;28;19978;-75
2023/08/16 09:54:13;;;;;;;;;;;;;;;27.75;75.79;96595.19;5045319;28;19973;-71
2023/08/16 09:56:39;;;;;;;;;;;;;;;27.77;78.12;96606.44;5045835;28;20009;-71
2023/08/16 09:59:07;;;;;;;;;;;;;;;27.79;77.99;96603.44;5028045;28;20278;-71
2023/08/16 10:01:33;;;;;;;;;;;;;;;27.87;81.65;96619.56;5004301;28;19964;-72
2023/08/16 10:04:01;;;;;;;;;;;;;;;27.98;79.93;96611.13;5004112;28;20146;-71
2023/08/16 10:06:30;;;;;;;;;;;;;;;28.09;75.78;96586.13;5004173;28;19956;-71
2023/08/16 10:08:56;;;;;;;;;;;;;;;28.16;78.25;96604.50;4987645;28;20237;-71
2023/08/16 10:11:22;;;;;;;;;;;;;;;28.21;77.91;96598.13;5003245;28;19965;-72
2023/08/16 10:13:48;;;;;;;;;;;;;;;28.31;77.48;96589.63;5003593;28;19964;-75
2023/08/16 10:16:15;;;;;;;;;;;;;;;28.33;75.35;96582.00;5003858;28;20269;-72
2023/08/16 10:18:45;;;;;;;;;;;;;;;28.34;76.78;96599.75;4987571;28;19954;-73
2023/08/16 10:21:15;;;;;;;;;;;;;;;28.36;76.01;96577.84;5003406;28;19970;-73
2023/08/16 10:23:42;;;;;;;;;;;;;;;28.46;78.04;96596.34;5003215;28;19953;-74
2023/08/16 10:26:19;;;;;;;;;;;;;;;28.58;78.66;96596.41;5003281;28;19969;-73
2023/08/16 10:28:51;;;;;;;;;;;;;;;28.63;73.99;96557.66;5003262;28;19961;-73
2023/08/16 10:31:21;;;;;;;;;;;;;;;28.73;75.22;96559.94;5003104;28;20259;-71
2023/08/16 10:33:49;;;;;;;;;;;;;;;28.84;76.57;96579.97;5044245;28;20165;-76
2023/08/16 10:36:15;;;;;;;;;;;;;;;28.94;75.00;96573.38;5027443;28;20030;-76
2023/08/16 10:38:47;;;;;;;;;;;;;;;29.04;73.10;96554.03;5044493;28;20240;-76
2023/08/16 10:41:13;;;;;;;;;;;;;;;29.17;72.96;96551.38;5044649;28;19967;-76
2023/08/16 10:43:45;;;;;;;;;;;;;;;29.24;70.55;96543.50;5044272;28;19955;-76
2023/08/16 10:46:11;;;;;;;;;;;;;;;29.24;73.27;96555.09;5044641;28;19956;-76
2023/08/16 10:48:37;;;;;;;;;;;;;;;29.39;73.05;96539.34;5044449;28;20260;-73
2023/08/16 10:51:07;;;;;;;;;;;;;;;29.52;71.40;96539.03;5044436;28;20142;-70
2023/08/16 10:53:34;;;;;;;;;;;;;;;29.59;70.31;96541.16;5044424;28;19974;-71
2023/08/16 10:56:03;;;;;;;;;;;;;;;29.72;71.17;96540.03;5044446;28;19963;-71
2023/08/16 10:58:29;;;;;;;;;;;;;;;29.88;69.69;96536.63;5044006;28;19939;-70
2023/08/16 11:00:58;;;;;;;;;;;;;;;29.97;68.35;96529.19;5044582;28;19958;-70
2023/08/16 11:03:31;;;;;;;;;;;;;;;30.05;71.70;96559.91;5044588;28;19956;-70
2023/08/16 11:06:06;;;;;;;;;;;;;;;30.19;68.99;96559.53;5044452;28;20147;-71
2023/08/16 11:08:31;;;;;;;;;;;;;;;30.34;69.41;96559.66;5026674;28;19965;-73
2023/08/16 11:10:58;;;;;;;;;;;;;;;30.40;67.77;96575.63;5044463;28;20312;-72
2023/08/16 11:13:26;;;;;;;;;;;;;;;30.48;67.68;96577.41;5043704;28;19974;-73
2023/08/16 11:15:53;;;;;;;;;;;;;;;30.40;67.82;96576.41;5044112;28;20108;-71
2023/08/16 11:18:45;;;;;;;;;;;;;;;30.44;66.65;96566.47;5043538;28;20236;-72
2023/08/16 11:21:11;;;;;;;;;;;;;;;30.54;67.03;96584.16;5041118;28;20254;-72
2023/08/16 11:23:39;;;;;;;;;;;;;;;30.67;66.99;96580.25;5048398;28;19957;-73
2023/08/16 11:26:06;;;;;;;;;;;;;;;30.76;66.69;96574.66;5048230;28;19963;-71
2023/08/16 11:28:33;;;;;;;;;;;;;;;30.84;65.37;96571.00;5048473;28;20146;-74
2023/08/16 11:31:00;;;;;;;;;;;;;;;30.97;64.44;96566.34;5048431;28;19967;-74
2023/08/16 11:33:30;;;;;;;;;;;;;;;31.09;65.55;96571.69;5048142;28;19967;-75
2023/08/16 11:35:57;;;;;;;;;;;;;;;31.10;63.41;96562.44;5048392;28;19960;-74
2023/08/16 11:38:23;;;;;;;;;;;;;;;30.99;61.84;96566.78;5047701;28;19961;-75
2023/08/16 11:40:49;;;;;;;;;;;;;;;31.02;63.24;96565.31;5048294;28;19982;-75
2023/08/16 11:43:15;;;;;;;;;;;;;;;31.06;61.81;96553.44;5048240;28;20220;-74
2023/08/16 11:45:41;;;;;;;;;;;;;;;31.21;64.83;96559.22;5047628;28;19944;-74
2023/08/16 11:48:07;;;;;;;;;;;;;;;31.41;63.90;96560.06;5047676;28;19959;-73
2023/08/16 11:50:33;;;;;;;;;;;;;;;31.58;61.97;96548.09;5047614;28;19956;-72
2023/08/16 11:53:00;;;;;;;;;;;;;;;31.74;58.53;96540.72;5048160;28;19976;-72
2023/08/16 11:55:29;;;;;;;;;;;;;;;31.86;58.70;96540.63;5047740;28;19959;-72
2023/08/16 11:58:05;;;;;;;;;;;;;;;31.85;60.84;96551.81;5047337;28;20157;-72
2023/08/16 12:00:32;;;;;;;;;;;;;;;31.72;57.54;96538.34;5048024;28;19979;-72
2023/08/16 12:03:05;;;;;;;;;;;;;;;31.78;61.50;96555.16;5047915;28;19965;-72
2023/08/16 12:05:35;;;;;;;;;;;;;;;31.71;60.66;96544.94;5047712;28;20107;-72
2023/08/16 12:08:05;;;;;;;;;;;;;;;31.49;59.19;96546.38;5030644;28;19963;-72
2023/08/16 12:10:33;;;;;;;;;;;;;;;31.45;60.17;96548.19;5030252;28;19955;-72
2023/08/16 12:13:09;;;;;;;;;;;;;;;31.60;62.34;96548.53;5047601;28;20249;-72
2023/08/16 12:15:35;;;;;;;;;;;;;;;31.83;62.36;96544.00;5047670;28;19955;-71
2023/08/16 12:18:01;;;;;;;;;;;;;;;32.00;61.09;96532.00;5046463;28;20172;-71
2023/08/16 12:20:28;;;;;;;;;;;;;;;32.22;60.78;96532.47;5047266;28;20022;-76
2023/08/16 12:22:55;;;;;;;;;;;;;;;32.42;57.08;96519.66;5047247;28;19956;-71
2023/08/16 12:25:21;;;;;;;;;;;;;;;32.42;57.50;96525.88;5047206;28;19976;-71
2023/08/16 12:27:47;;;;;;;;;;;;;;;32.52;59.62;96527.22;5047432;28;19963;-71
2023/08/16 12:30:13;;;;;;;;;;;;;;;32.61;58.62;96521.59;5029352;28;19963;-70
2023/08/16 12:32:38;;;;;;;;;;;;;;;32.71;58.13;96524.50;5046647;28;20124;-70
2023/08/16 12:35:04;;;;;;;;;;;;;;;32.75;54.68;96511.78;5047230;28;20236;-70
2023/08/16 12:37:30;;;;;;;;;;;;;;;32.71;56.83;96521.00;5047024;28;19962;-70